createdAt,value
2023-02-04T00:04:43.139Z,103340.16
2023-02-04T00:09:47.377Z,103339.22
2023-02-04T00:14:51.799Z,103338.19
2023-02-04T00:19:54.842Z,103343.28
2023-02-04T00:24:58.048Z,103343.41
2023-02-04T00:30:02.380Z,103331.97
2023-02-04T00:35:05.677Z,103338.03
2023-02-04T00:40:09.946Z,103345.41
2023-02-04T00:45:16.441Z,103342.44
2023-02-04T00:50:20.672Z,103352.25
2023-02-04T00:55:23.686Z,103351.69
2023-02-04T01:00:28.450Z,103362.41
2023-02-04T01:05:31.611Z,103364.00
2023-02-04T01:10:34.777Z,103364.34
2023-02-04T01:15:39.600Z,103360.41
2023-02-04T01:20:42.731Z,103378.88
2023-02-04T01:25:45.846Z,103375.78
2023-02-04T01:30:50.454Z,103379.84
2023-02-04T01:35:53.663Z,103390.13
2023-02-04T01:40:57.285Z,103384.06
2023-02-04T01:46:02.642Z,103393.00
2023-02-04T01:51:08.765Z,103404.69
2023-02-04T01:56:18.745Z,103409.19
2023-02-04T02:01:38.455Z,103418.19
2023-02-04T02:06:45.392Z,103399.63
2023-02-04T02:11:49.119Z,103419.44
2023-02-04T02:16:53.736Z,103416.53
2023-02-04T02:22:05.205Z,103399.63
2023-02-04T02:27:12.634Z,103424.25
2023-02-04T02:32:16.707Z,103420.44
2023-02-04T02:37:19.841Z,103433.66
2023-02-04T02:42:24.810Z,103431.09
2023-02-04T02:47:28.420Z,103429.44
2023-02-04T02:52:31.601Z,103430.22
2023-02-04T02:57:36.243Z,103439.88
2023-02-04T03:02:39.752Z,103440.19
2023-02-04T03:07:42.914Z,103445.06
2023-02-04T03:12:48.950Z,103427.22
2023-02-04T03:17:56.482Z,103429.25
2023-02-04T03:22:59.878Z,103437.25
2023-02-04T03:28:05.464Z,103437.06
2023-02-04T03:33:08.585Z,103434.66
2023-02-04T03:38:11.591Z,103441.75
2023-02-04T03:43:16.217Z,103454.56
2023-02-04T03:48:19.732Z,103461.28
2023-02-04T03:53:23.163Z,103457.19
2023-02-04T03:58:27.651Z,103448.16
2023-02-04T04:03:30.776Z,103453.69
2023-02-04T04:08:34.531Z,103465.78
2023-02-04T04:13:38.839Z,103475.47
2023-02-04T04:18:42.090Z,103481.59
2023-02-04T04:23:45.113Z,103484.97
2023-02-04T04:28:49.418Z,103490.84
2023-02-04T04:33:52.390Z,103493.78
2023-02-04T04:38:55.375Z,103502.97
2023-02-04T04:43:59.842Z,103498.84
2023-02-04T04:49:02.817Z,103490.53
2023-02-04T04:54:05.972Z,103492.53
2023-02-04T04:59:10.460Z,103489.28
2023-02-04T05:04:13.407Z,103478.72
2023-02-04T05:09:17.501Z,103488.84
2023-02-04T05:14:22.103Z,103500.03
2023-02-04T05:19:25.467Z,103523.19
2023-02-04T05:24:28.793Z,103519.03
2023-02-04T05:29:33.269Z,103515.78
2023-02-04T05:34:36.451Z,103523.34
2023-02-04T05:39:39.386Z,103518.41
2023-02-04T05:44:43.787Z,103518.53
2023-02-04T05:49:46.890Z,103522.63
2023-02-04T05:54:50.058Z,103526.47
2023-02-04T05:59:54.387Z,103532.13
2023-02-04T06:04:57.382Z,103532.59
2023-02-04T06:10:00.535Z,103527.38
2023-02-04T06:15:05.587Z,103544.41
2023-02-04T06:20:10.077Z,103539.81
2023-02-04T06:25:13.142Z,103540.28
2023-02-04T06:30:18.230Z,103554.78
2023-02-04T06:35:21.256Z,103562.41
2023-02-04T06:40:24.204Z,103578.69
2023-02-04T06:45:28.635Z,103582.78
2023-02-04T06:50:31.768Z,103581.88
2023-02-04T06:55:35.007Z,103574.28
2023-02-04T07:00:39.448Z,103593.19
2023-02-04T07:05:42.418Z,103590.56
2023-02-04T07:10:45.416Z,103602.88
2023-02-04T07:15:49.906Z,103609.47
2023-02-04T07:20:53.029Z,103587.50
2023-02-04T07:25:57.460Z,103611.09
2023-02-04T07:31:02.052Z,103600.34
2023-02-04T07:36:05.532Z,103606.94
2023-02-04T07:41:08.471Z,103610.78
2023-02-04T07:46:13.041Z,103625.53
2023-02-04T07:51:16.265Z,103635.53
2023-02-04T07:56:19.299Z,103633.00
2023-02-04T08:01:23.737Z,103626.25
2023-02-04T08:06:26.950Z,103628.94
2023-02-04T08:11:29.969Z,103641.81
2023-02-04T08:16:34.408Z,103647.50
2023-02-04T08:21:37.547Z,103663.56
2023-02-04T08:26:40.778Z,103666.28
2023-02-04T08:31:47.814Z,103674.88
2023-02-04T08:36:50.873Z,103669.41
2023-02-04T08:41:53.825Z,103680.41
2023-02-04T08:46:58.218Z,103677.06
2023-02-04T08:52:02.980Z,103679.09
2023-02-04T08:57:06.055Z,103692.56
2023-02-04T09:02:11.632Z,103687.09
2023-02-04T09:07:14.758Z,103693.09
2023-02-04T09:12:17.920Z,103703.00
2023-02-04T09:17:22.544Z,103715.34
2023-02-04T09:22:25.690Z,103714.16
2023-02-04T09:27:29.005Z,103720.59
2023-02-04T09:32:33.319Z,103713.28
2023-02-04T09:37:36.561Z,103715.16
2023-02-04T09:42:39.958Z,103717.31
2023-02-04T09:47:44.424Z,103719.00
2023-02-04T09:52:50.490Z,103725.16
2023-02-04T09:57:53.808Z,103730.97
2023-02-04T10:03:00.105Z,103734.94
2023-02-04T10:08:03.134Z,103735.38
2023-02-04T10:13:08.469Z,103734.88
2023-02-04T10:18:18.800Z,103739.44
2023-02-04T10:23:22.463Z,103729.47
2023-02-04T10:28:35.104Z,103735.13
2023-02-04T10:33:40.036Z,103751.53
2023-02-04T10:38:43.079Z,103745.25
2023-02-04T10:43:46.110Z,103741.94
2023-02-04T10:48:50.860Z,103752.41
2023-02-04T10:54:12.953Z,103750.28
2023-02-04T10:59:26.792Z,103753.19
2023-02-04T11:04:31.199Z,103752.91
2023-02-04T11:09:34.271Z,103765.84
2023-02-04T11:14:37.269Z,103758.91
2023-02-04T11:19:43.704Z,103739.81
2023-02-04T11:24:46.735Z,103750.09
2023-02-04T11:29:50.183Z,103750.84
2023-02-04T11:34:57.356Z,103744.41
2023-02-04T11:40:02.286Z,103745.78
2023-02-04T11:45:15.430Z,103743.59
2023-02-04T11:50:24.953Z,103736.34
2023-02-04T11:55:28.271Z,103737.28
2023-02-04T12:00:33.997Z,103721.66
2023-02-04T12:05:41.952Z,103735.78
2023-02-04T12:10:50.876Z,103734.16
2023-02-04T12:15:59.118Z,103727.38
2023-02-04T12:21:05.012Z,103736.31
2023-02-04T12:26:09.479Z,103728.75
2023-02-04T12:31:15.477Z,103736.78
2023-02-04T12:36:20.068Z,103736.97
2023-02-04T12:41:23.560Z,103740.88
2023-02-04T12:46:26.535Z,103730.22
2023-02-04T12:51:30.920Z,103736.09
2023-02-04T12:56:34.009Z,103725.03
2023-02-04T13:01:37.081Z,103731.34
2023-02-04T13:06:41.598Z,103729.84
2023-02-04T13:11:44.652Z,103728.00
2023-02-04T13:16:47.656Z,103735.13
2023-02-04T13:21:52.069Z,103722.75
2023-02-04T13:26:55.147Z,103723.78
2023-02-04T13:31:58.238Z,103718.03
2023-02-04T13:37:02.761Z,103713.38
2023-02-04T13:42:07.166Z,103700.78
2023-02-04T13:47:10.215Z,103698.59
2023-02-04T13:52:14.623Z,103695.38
2023-02-04T13:57:17.992Z,103720.25
2023-02-04T14:02:23.637Z,103707.09
2023-02-04T14:07:28.314Z,103708.00
2023-02-04T14:12:31.406Z,103706.25
2023-02-04T14:17:34.414Z,103708.34
2023-02-04T14:22:39.040Z,103704.22
2023-02-04T14:27:42.755Z,103710.84
2023-02-04T14:32:45.861Z,103700.25
2023-02-04T14:37:50.408Z,103697.03
2023-02-04T14:42:53.722Z,103696.56
2023-02-04T14:47:57.136Z,103695.44
2023-02-04T14:53:01.577Z,103714.47
2023-02-04T14:58:04.717Z,103708.41
2023-02-04T15:03:07.741Z,103713.13
2023-02-04T15:08:12.213Z,103718.41
2023-02-04T15:13:15.339Z,103714.94
2023-02-04T15:18:18.428Z,103718.25
2023-02-04T15:23:22.914Z,103720.28
2023-02-04T15:28:27.924Z,103725.03
2023-02-04T15:33:31.108Z,103738.88
2023-02-04T15:38:35.591Z,103739.72
2023-02-04T15:43:38.940Z,103744.47
2023-02-04T15:48:42.040Z,103733.72
2023-02-04T15:53:46.484Z,103737.13
2023-02-04T15:58:49.653Z,103737.94
2023-02-04T16:03:56.440Z,103749.94
2023-02-04T16:09:00.878Z,103745.19
2023-02-04T16:14:03.975Z,103746.63
2023-02-04T16:19:07.292Z,103750.31
2023-02-04T16:24:13.206Z,103761.25
2023-02-04T16:29:16.619Z,103754.31
2023-02-04T16:34:19.710Z,103743.66
2023-02-04T16:39:24.470Z,103773.09
2023-02-04T16:44:27.593Z,103763.47
2023-02-04T16:49:30.724Z,103776.88
2023-02-04T16:54:35.848Z,103781.47
2023-02-04T16:59:39.221Z,103775.41
2023-02-04T17:04:42.446Z,103781.97
2023-02-04T17:09:46.957Z,103788.78
2023-02-04T17:14:50.036Z,103779.31
2023-02-04T17:19:52.931Z,103789.56
2023-02-04T17:24:57.271Z,103792.66
2023-02-04T17:30:00.347Z,103788.72
2023-02-04T17:35:03.623Z,103791.50
2023-02-04T17:40:13.008Z,103795.66
2023-02-04T17:45:16.768Z,103799.09
2023-02-04T17:50:20.282Z,103807.88
2023-02-04T17:55:28.515Z,103817.31
2023-02-04T18:00:33.147Z,103817.84
2023-02-04T18:05:36.803Z,103822.28
2023-02-04T18:10:43.783Z,103816.63
2023-02-04T18:15:49.434Z,103814.13
2023-02-04T18:21:00.375Z,103815.88
2023-02-04T18:26:13.138Z,103809.69
2023-02-04T18:31:29.833Z,103812.03
2023-02-04T18:36:34.653Z,103818.84
2023-02-04T18:41:41.508Z,103807.81
2023-02-04T18:46:49.305Z,103824.09
2023-02-04T18:51:52.962Z,103839.56
2023-02-04T18:57:05.592Z,103830.63
2023-02-04T19:02:30.574Z,103826.00
2023-02-04T19:07:36.090Z,103820.50
2023-02-04T19:12:40.429Z,103829.94
2023-02-04T19:17:43.817Z,103828.22
2023-02-04T19:22:49.795Z,103832.91
2023-02-04T19:27:56.121Z,103825.94
2023-02-04T19:33:00.416Z,103836.50
2023-02-04T19:38:27.493Z,103840.38
2023-02-04T19:43:37.603Z,103839.59
2023-02-04T19:48:40.834Z,103820.97
2023-02-04T19:53:46.346Z,103809.78
2023-02-04T19:58:52.939Z,103810.88
2023-02-04T20:04:01.094Z,103808.97
2023-02-04T20:09:07.763Z,103806.22
2023-02-04T20:14:24.270Z,103803.78
2023-02-04T20:19:29.956Z,103795.03
2023-02-04T20:24:36.905Z,103793.94
2023-02-04T20:29:41.239Z,103801.22
2023-02-04T20:34:44.373Z,103826.31
2023-02-04T20:39:47.456Z,103811.88
2023-02-04T20:44:52.301Z,103819.22
2023-02-04T20:49:57.201Z,103816.47
2023-02-04T20:55:02.197Z,103819.66
2023-02-04T21:00:14.896Z,103809.53
2023-02-04T21:05:24.618Z,103795.63
2023-02-04T21:10:27.724Z,103798.41
2023-02-04T21:15:34.182Z,103807.03
2023-02-04T21:20:37.363Z,103804.53
2023-02-04T21:25:40.390Z,103810.22
2023-02-04T21:30:44.936Z,103802.03
2023-02-04T21:35:48.093Z,103800.16
2023-02-04T21:40:51.250Z,103809.72
2023-02-04T21:45:55.910Z,103806.06
2023-02-04T21:50:59.004Z,103806.06
2023-02-04T21:56:02.270Z,103811.56
2023-02-04T22:01:07.413Z,103816.94
2023-02-04T22:06:10.406Z,103814.31
2023-02-04T22:11:13.465Z,103820.78
2023-02-04T22:16:17.951Z,103804.19
2023-02-04T22:21:21.266Z,103820.41
2023-02-04T22:26:24.270Z,103824.31
2023-02-04T22:31:28.643Z,103826.94
2023-02-04T22:36:31.886Z,103834.03
2023-02-04T22:41:35.017Z,103839.72
2023-02-04T22:46:39.518Z,103821.53
2023-02-04T22:51:42.982Z,103822.63
2023-02-04T22:56:46.226Z,103824.09
2023-02-04T23:01:50.781Z,103815.19
2023-02-04T23:06:54.066Z,103805.97
2023-02-04T23:11:58.095Z,103792.72
2023-02-04T23:17:02.400Z,103806.56
2023-02-04T23:22:06.559Z,103800.38
2023-02-04T23:27:11.409Z,103704.75
2023-02-04T23:32:15.825Z,103775.47
2023-02-04T23:37:18.940Z,103774.09
2023-02-04T23:42:22.015Z,103768.03
2023-02-04T23:47:26.387Z,103770.75
2023-02-04T23:52:29.465Z,103778.63
2023-02-04T23:57:32.461Z,103766.59
